createdAt,value
2022-10-17T00:01:10.951Z,101343.84
2022-10-17T00:03:40.324Z,101339.56
2022-10-17T00:06:14.196Z,101332.19
2022-10-17T00:08:45.408Z,101329.38
2022-10-17T00:11:21.999Z,101339.31
2022-10-17T00:13:55.324Z,101342.53
2022-10-17T00:16:39.543Z,101345.44
2022-10-17T00:19:07.477Z,101359.31
2022-10-17T00:21:35.189Z,101355.06
2022-10-17T00:24:02.278Z,101347.16
2022-10-17T00:26:32.521Z,101346.47
2022-10-17T00:29:00.905Z,101347.41
2022-10-17T00:31:30.767Z,101355.72
2022-10-17T00:33:57.459Z,101353.75
2022-10-17T00:36:29.781Z,101357.06
2022-10-17T00:39:01.955Z,101350.09
2022-10-17T00:41:34.500Z,101332.78
2022-10-17T00:44:30.296Z,101347.84
2022-10-17T00:47:04.092Z,101349.94
2022-10-17T00:49:41.753Z,101358.91
2022-10-17T00:52:33.573Z,101370.00
2022-10-17T00:55:28.886Z,101363.94
2022-10-17T00:58:11.377Z,101360.69
2022-10-17T01:00:42.512Z,101354.28
2022-10-17T01:03:09.696Z,101355.59
2022-10-17T01:05:39.024Z,101348.78
2022-10-17T01:08:26.219Z,101348.84
2022-10-17T01:11:32.972Z,101347.16
2022-10-17T01:14:24.078Z,101348.19
2022-10-17T01:17:31.030Z,101342.41
2022-10-17T01:21:23.698Z,101328.06
2022-10-17T01:24:27.010Z,101328.06
2022-10-17T01:27:21.640Z,101333.31
2022-10-17T01:31:04.946Z,101338.31
2022-10-17T01:34:00.897Z,101342.56
2022-10-17T01:37:02.995Z,101340.88
2022-10-17T01:39:59.332Z,101341.00
2022-10-17T01:43:37.759Z,101342.69
2022-10-17T01:46:36.846Z,101333.03
2022-10-17T01:49:09.967Z,101344.56
2022-10-17T01:52:21.789Z,101343.56
2022-10-17T01:55:31.117Z,101336.88
2022-10-17T01:58:22.243Z,101333.91
2022-10-17T02:00:53.398Z,101327.78
2022-10-17T02:03:23.730Z,101334.16
2022-10-17T02:05:55.042Z,101331.34
2022-10-17T02:08:50.763Z,101325.22
2022-10-17T02:11:29.611Z,101321.38
2022-10-17T02:14:32.783Z,101313.97
2022-10-17T02:17:34.133Z,101318.41
2022-10-17T02:20:44.125Z,101307.03
2022-10-17T02:23:50.792Z,101305.75
2022-10-17T02:26:40.185Z,101318.66
2022-10-17T02:29:20.941Z,101321.25
2022-10-17T02:32:11.823Z,101319.25
2022-10-17T02:34:49.234Z,101309.56
2022-10-17T02:37:27.743Z,101313.53
2022-10-17T02:40:02.075Z,101317.50
2022-10-17T02:42:31.147Z,101318.47
2022-10-17T02:45:02.922Z,101324.47
2022-10-17T02:48:00.749Z,101323.44
2022-10-17T02:51:04.148Z,101322.03
2022-10-17T02:54:23.121Z,101315.03
2022-10-17T02:57:13.440Z,101318.16
2022-10-17T02:59:55.149Z,101323.81
2022-10-17T03:02:22.139Z,101316.09
2022-10-17T03:04:48.919Z,101313.97
2022-10-17T03:07:15.822Z,101304.72
2022-10-17T03:09:42.609Z,101301.03
2022-10-17T03:12:09.660Z,101286.34
2022-10-17T03:14:36.770Z,101296.00
2022-10-17T03:17:03.598Z,101293.31
2022-10-17T03:19:30.355Z,101295.69
2022-10-17T03:21:57.189Z,101291.00
2022-10-17T03:24:23.934Z,101285.28
2022-10-17T03:26:50.653Z,101295.09
2022-10-17T03:29:17.385Z,101293.50
2022-10-17T03:31:44.171Z,101287.91
2022-10-17T03:34:10.926Z,101283.81
2022-10-17T03:36:38.971Z,101286.69
2022-10-17T03:39:05.757Z,101281.31
2022-10-17T03:41:32.514Z,101277.16
2022-10-17T03:43:59.855Z,101274.31
2022-10-17T03:46:29.670Z,101279.63
2022-10-17T03:48:56.289Z,101287.44
2022-10-17T03:51:35.101Z,101276.75
2022-10-17T03:54:05.570Z,101283.31
2022-10-17T03:56:32.320Z,101286.03
2022-10-17T03:59:02.483Z,101273.53
2022-10-17T04:01:29.253Z,101279.06
2022-10-17T04:04:06.235Z,101271.53
2022-10-17T04:06:37.845Z,101277.91
2022-10-17T04:09:07.340Z,101271.97
2022-10-17T04:11:34.643Z,101267.56
2022-10-17T04:14:01.675Z,101264.72
2022-10-17T04:16:29.421Z,101262.72
2022-10-17T04:18:59.507Z,101258.59
2022-10-17T04:21:29.350Z,101249.78
2022-10-17T04:24:01.050Z,101255.56
2022-10-17T04:26:28.266Z,101253.88
2022-10-17T04:28:55.347Z,101245.78
2022-10-17T04:31:25.265Z,101239.91
2022-10-17T04:33:52.830Z,101246.72
2022-10-17T04:36:34.822Z,101245.41
2022-10-17T05:21:39.803Z,101191.28
2022-10-17T05:35:01.459Z,101192.06
2022-10-17T05:48:17.120Z,101178.03
2022-10-17T13:36:36.732Z,101197.81
2022-10-17T13:39:16.885Z,101219.66
2022-10-17T13:41:47.555Z,101245.78
2022-10-17T13:44:22.027Z,101246.50
2022-10-17T13:46:50.609Z,101240.75
2022-10-17T13:49:32.374Z,101232.75
2022-10-17T13:52:03.622Z,101222.22
2022-10-17T13:54:59.801Z,101206.91
2022-10-17T13:57:34.067Z,101198.38
2022-10-17T14:00:27.729Z,101192.06
2022-10-17T14:02:54.809Z,101189.16
2022-10-17T14:05:28.028Z,101180.31
2022-10-17T14:08:21.754Z,101162.09
2022-10-17T14:10:56.152Z,101146.41
2022-10-17T14:13:35.051Z,101151.03
2022-10-17T14:16:04.570Z,101156.97
2022-10-17T14:18:38.052Z,101153.84
2022-10-17T14:21:36.943Z,101150.97
2022-10-17T14:24:24.183Z,101136.28
2022-10-17T14:27:11.677Z,101144.63
2022-10-17T14:29:55.146Z,101171.25
2022-10-17T14:32:22.956Z,101179.59
2022-10-17T14:35:05.505Z,101196.78
2022-10-17T14:37:48.907Z,101208.91
2022-10-17T14:40:25.913Z,101207.22
2022-10-17T14:42:58.265Z,101205.50
2022-10-17T14:45:39.638Z,101225.44
2022-10-17T14:48:21.470Z,101224.41
2022-10-17T14:51:19.468Z,101232.94
2022-10-17T14:54:30.946Z,101223.63
2022-10-17T14:56:57.633Z,101233.00
2022-10-17T14:59:53.444Z,101240.69
2022-10-17T15:02:25.871Z,101233.72
2022-10-17T15:04:55.755Z,101232.88
2022-10-17T15:07:24.374Z,101240.69
2022-10-17T15:09:54.135Z,101241.72
2022-10-17T15:12:26.409Z,101249.38
2022-10-17T15:14:54.107Z,101252.94
2022-10-17T15:17:34.434Z,101261.13
2022-10-17T15:20:01.266Z,101254.38
2022-10-17T15:22:31.275Z,101263.38
2022-10-17T15:24:58.200Z,101259.31
2022-10-17T15:27:27.246Z,101271.03
2022-10-17T15:29:54.095Z,101272.25
2022-10-17T15:32:25.532Z,101275.47
2022-10-17T15:34:52.528Z,101274.13
2022-10-17T15:37:25.288Z,101276.19
2022-10-17T15:39:56.448Z,101267.72
2022-10-17T15:42:33.639Z,101267.34
2022-10-17T15:45:00.439Z,101271.94
2022-10-17T15:47:36.859Z,101278.91
2022-10-17T15:50:08.683Z,101279.06
2022-10-17T15:52:35.995Z,101276.56
2022-10-17T15:55:05.331Z,101292.00
2022-10-17T15:57:40.601Z,101292.00
2022-10-17T16:00:20.750Z,101296.47
2022-10-17T16:02:49.303Z,101300.38
2022-10-17T16:05:26.896Z,101298.19
2022-10-17T16:07:54.202Z,101297.53
2022-10-17T16:10:22.849Z,101304.81
2022-10-17T16:12:50.611Z,101302.97
2022-10-17T16:15:27.791Z,101321.00
2022-10-17T16:18:00.394Z,101316.75
2022-10-17T16:20:28.548Z,101317.94
2022-10-17T16:23:00.821Z,101322.56
2022-10-17T16:25:31.027Z,101328.16
2022-10-17T16:28:01.028Z,101327.31
2022-10-17T16:30:32.808Z,101330.22
2022-10-17T16:32:59.867Z,101328.69
2022-10-17T16:35:33.315Z,101331.25
2022-10-17T16:38:05.540Z,101334.13
2022-10-17T16:40:32.355Z,101337.03
2022-10-17T16:42:58.947Z,101334.50
2022-10-17T16:45:27.913Z,101331.09
2022-10-17T16:47:55.678Z,101340.94
2022-10-17T16:50:25.452Z,101343.84
2022-10-17T16:52:52.227Z,101357.44
2022-10-17T16:55:19.503Z,101361.72
2022-10-17T16:57:49.706Z,101358.84
2022-10-17T17:00:20.013Z,101367.00
2022-10-17T17:02:49.868Z,101366.66
2022-10-17T17:05:22.279Z,101375.69
2022-10-17T17:07:55.921Z,101368.53
2022-10-17T17:10:25.835Z,101373.97
2022-10-17T17:12:59.544Z,101371.63
2022-10-17T17:15:30.093Z,101383.00
2022-10-17T17:17:57.947Z,101378.25
2022-10-17T17:20:33.944Z,101382.16
2022-10-17T17:23:06.112Z,101391.34
2022-10-17T17:25:35.983Z,101392.53
2022-10-17T17:28:03.972Z,101394.38
2022-10-17T17:30:30.739Z,101386.72
2022-10-17T17:32:57.504Z,101389.13
2022-10-17T17:35:24.190Z,101396.59
2022-10-17T17:37:51.039Z,101409.34
2022-10-17T17:40:18.013Z,101405.25
2022-10-17T17:42:50.601Z,101407.13
2022-10-17T17:45:17.576Z,101415.78
2022-10-17T17:47:44.286Z,101418.81
2022-10-17T17:50:11.035Z,101419.50
2022-10-17T17:52:40.086Z,101421.03
2022-10-17T17:55:07.857Z,101425.63
2022-10-17T17:57:34.603Z,101423.22
2022-10-17T18:00:01.351Z,101430.19
2022-10-17T18:02:28.287Z,101425.44
2022-10-17T18:05:04.912Z,101420.84
2022-10-17T18:07:31.694Z,101428.47
2022-10-17T18:10:01.386Z,101428.31
2022-10-17T18:12:29.537Z,101426.94
2022-10-17T18:14:56.446Z,101431.88
2022-10-17T18:17:23.281Z,101429.31
2022-10-17T18:19:49.942Z,101429.66
2022-10-17T18:22:16.907Z,101427.59
2022-10-17T18:24:46.251Z,101437.28
2022-10-17T18:35:21.226Z,101445.94
2022-10-17T18:37:55.279Z,101446.41
2022-10-17T18:54:06.672Z,101462.47
2022-10-17T18:59:15.843Z,101461.66
2022-10-17T19:04:26.932Z,101459.56
2022-10-17T19:17:40.128Z,101446.28
2022-10-17T19:40:51.054Z,101485.38
2022-10-17T19:43:32.321Z,101498.56
2022-10-17T19:57:36.347Z,101518.16
2022-10-17T20:00:05.013Z,101505.75
2022-10-17T20:02:32.403Z,101526.28
2022-10-17T20:05:17.668Z,101515.59
2022-10-17T20:13:34.718Z,101521.97
2022-10-17T20:21:40.682Z,101537.91
2022-10-17T20:29:36.520Z,101539.97
2022-10-17T20:37:26.377Z,101557.47
2022-10-17T20:45:19.895Z,101561.97
2022-10-17T20:50:42.962Z,101577.41
2022-10-17T20:53:36.035Z,101592.66
2022-10-17T20:56:11.543Z,101592.84
2022-10-17T20:58:38.372Z,101597.84
2022-10-17T21:01:10.697Z,101595.84
2022-10-17T21:03:42.369Z,101601.44
2022-10-17T21:06:13.240Z,101604.16
2022-10-17T21:08:40.249Z,101609.81
2022-10-17T21:11:18.748Z,101611.19
2022-10-17T21:14:03.616Z,101615.47
2022-10-17T21:16:37.839Z,101616.19
2022-10-17T21:19:06.064Z,101615.88
2022-10-17T21:21:37.940Z,101609.59
2022-10-17T21:24:13.549Z,101608.41
2022-10-17T21:26:47.887Z,101611.28
2022-10-17T21:29:17.814Z,101615.00
2022-10-17T21:31:47.893Z,101597.34
2022-10-17T21:34:23.938Z,101605.47
2022-10-17T21:36:53.938Z,101600.13
2022-10-17T21:39:22.951Z,101601.25
2022-10-17T21:41:49.694Z,101609.72
2022-10-17T21:44:27.248Z,101610.56
2022-10-17T21:46:57.685Z,101611.72
2022-10-17T21:49:25.658Z,101601.66
2022-10-17T21:51:53.562Z,101612.19
2022-10-17T21:54:25.674Z,101607.94
2022-10-17T21:56:53.078Z,101607.13
2022-10-17T21:59:19.830Z,101612.25
2022-10-17T22:01:46.988Z,101613.81
2022-10-17T22:04:19.542Z,101618.06
2022-10-17T22:06:51.145Z,101616.38
2022-10-17T22:09:25.897Z,101617.84
2022-10-17T22:11:58.662Z,101611.88
2022-10-17T22:14:27.660Z,101628.38
2022-10-17T22:16:55.478Z,101622.56
2022-10-17T22:19:26.526Z,101621.03
2022-10-17T22:21:57.831Z,101630.19
2022-10-17T22:24:24.622Z,101626.22
2022-10-17T22:26:51.842Z,101636.34
2022-10-17T22:29:18.654Z,101633.25
2022-10-17T22:31:48.369Z,101649.38
2022-10-17T22:34:17.922Z,101644.94
2022-10-17T22:36:48.023Z,101650.38
2022-10-17T22:39:14.940Z,101646.81
2022-10-17T22:41:43.740Z,101639.66
2022-10-17T22:44:10.513Z,101638.66
2022-10-17T22:46:37.346Z,101640.38
2022-10-17T22:49:04.521Z,101641.66
2022-10-17T22:51:32.226Z,101631.28
2022-10-17T22:53:58.888Z,101643.56
2022-10-17T22:56:25.787Z,101632.47
2022-10-17T22:58:55.619Z,101634.59
2022-10-17T23:01:25.681Z,101645.31
2022-10-17T23:03:56.087Z,101644.59
2022-10-17T23:06:23.093Z,101642.75
2022-10-17T23:08:52.375Z,101634.91
2022-10-17T23:11:20.876Z,101645.06
2022-10-17T23:13:47.925Z,101644.47
2022-10-17T23:16:14.598Z,101652.19
2022-10-17T23:18:41.796Z,101651.31
2022-10-17T23:21:08.588Z,101650.47
2022-10-17T23:23:36.109Z,101643.34
2022-10-17T23:26:12.078Z,101645.44
2022-10-17T23:28:40.318Z,101654.59
2022-10-17T23:31:19.458Z,101652.59
2022-10-17T23:33:49.696Z,101640.34
2022-10-17T23:36:20.472Z,101637.31
2022-10-17T23:38:52.642Z,101650.59
2022-10-17T23:41:21.806Z,101659.44
2022-10-17T23:43:48.526Z,101662.69
2022-10-17T23:46:15.227Z,101650.13
2022-10-17T23:48:41.869Z,101647.56
2022-10-17T23:51:10.302Z,101649.28
2022-10-17T23:53:39.534Z,101652.84
2022-10-17T23:56:09.222Z,101655.69
2022-10-17T23:58:36.583Z,101658.00
